Time;durP1;ratioP1;P1;durP2;ratioP2;P2;SDS_P1;SDS_P2;PMS_P1;PMS_P2;Temp;Humidity;BMP_temperature;BMP_pressure;BME280_temperature;BME280_humidity;BME280_pressure;Samples;Min_cycle;Max_cycle;Signal;HPM_P1;HPM_P2
2022/02/11 00:08:15;;;;;;;7.07;5.65;;;3.90;99.90;;;;;;493992;241;27508;-70
2022/02/11 00:10:16;;;;;;;8.82;6.05;;;3.90;99.90;;;;;;493963;241;27515;-70
2022/02/11 00:12:18;;;;;;;10.48;6.55;;;3.90;99.90;;;;;;493973;241;27470;-71
2022/02/11 00:14:19;;;;;;;8.02;5.68;;;3.90;99.90;;;;;;493950;241;28798;-70
2022/02/11 00:16:20;;;;;;;7.53;5.80;;;3.90;99.90;;;;;;493991;241;27943;-70
2022/02/11 00:18:21;;;;;;;7.15;5.70;;;3.90;99.90;;;;;;494004;241;27930;-70
2022/02/11 00:20:23;;;;;;;8.77;5.93;;;3.90;99.90;;;;;;494020;241;27497;-70
2022/02/11 00:22:24;;;;;;;7.47;5.72;;;3.80;99.90;;;;;;494006;241;27471;-70
2022/02/11 00:24:25;;;;;;;7.43;5.60;;;3.80;99.90;;;;;;493994;241;27596;-70
2022/02/11 00:26:33;;;;;;;6.68;5.57;;;3.80;99.90;;;;;;493980;241;27493;-70
2022/02/11 00:35:09;;;;;;;8.48;6.57;;;3.80;99.90;;;;;;494013;241;27596;-70
2022/02/11 00:37:09;;;;;;;9.23;6.20;;;3.80;99.90;;;;;;493098;241;27513;-70
2022/02/11 00:45:49;;;;;;;9.80;6.00;;;3.80;99.90;;;;;;494013;241;27650;-67
2022/02/11 01:05:46;;;;;;;9.10;6.78;;;3.70;99.90;;;;;;493959;241;28215;-68
2022/02/11 01:07:46;;;;;;;7.87;6.40;;;3.70;99.90;;;;;;493938;241;27494;-68
2022/02/11 01:09:48;;;;;;;9.48;7.20;;;3.70;99.90;;;;;;494019;241;27515;-68
2022/02/11 01:11:52;;;;;;;9.55;6.72;;;3.60;99.90;;;;;;493991;241;27950;-68
2022/02/11 01:13:50;;;;;;;8.57;6.47;;;3.70;99.90;;;;;;493720;241;27963;-68
2022/02/11 01:15:59;;;;;;;10.35;7.53;;;3.60;99.90;;;;;;494003;241;29143;-68
2022/02/11 01:17:57;;;;;;;13.18;9.27;;;3.60;99.90;;;;;;493401;241;27487;-68
2022/02/11 01:22:06;;;;;;;9.13;6.60;;;3.40;99.90;;;;;;493960;241;27513;-67
2022/02/11 01:24:10;;;;;;;7.68;6.10;;;3.30;99.90;;;;;;492959;241;27532;-67
2022/02/11 01:26:14;;;;;;;6.45;4.72;;;3.20;99.90;;;;;;492679;241;27500;-67
2022/02/11 01:34:46;;;;;;;3.55;2.95;;;3.00;99.90;;;;;;493898;241;27582;-69
2022/02/11 01:36:53;;;;;;;3.40;3.10;;;3.00;99.90;;;;;;492519;241;27615;-69
2022/02/11 01:39:01;;;;;;;3.12;2.83;;;3.10;99.90;;;;;;492825;241;27556;-67
2022/02/11 01:45:31;;;;;;;2.22;2.03;;;3.00;99.90;;;;;;487046;241;27433;-68
2022/02/11 01:51:52;;;;;;;1.70;1.60;;;3.00;99.90;;;;;;493979;241;27653;-68
2022/02/11 01:53:51;;;;;;;1.80;1.70;;;3.00;99.90;;;;;;493202;241;27565;-68
2022/02/11 01:56:56;;;;;;;1.70;1.60;;;3.00;99.90;;;;;;493362;241;27512;-68
2022/02/11 02:00:25;;;;;;;1.90;1.80;;;3.00;99.90;;;;;;493993;241;27528;-68
2022/02/11 02:19:01;;;;;;;1.70;1.60;;;2.80;99.90;;;;;;493972;241;28052;-68
2022/02/11 02:24:59;;;;;;;1.50;1.40;;;2.80;99.90;;;;;;494014;241;28070;-68
2022/02/11 02:27:12;;;;;;;1.50;1.40;;;2.80;99.90;;;;;;492690;241;29019;-68
2022/02/11 02:33:46;;;;;;;1.35;1.35;;;2.70;99.90;;;;;;493959;241;27490;-68
2022/02/11 02:57:46;;;;;;;1.25;1.25;;;2.60;99.90;;;;;;486099;241;27554;-68
2022/02/11 03:15:57;;;;;;;1.35;1.35;;;2.60;99.90;;;;;;494010;241;27607;-68
2022/02/11 03:49:34;;;;;;;1.20;1.20;;;2.50;99.90;;;;;;494017;241;27479;-68
2022/02/11 03:51:41;;;;;;;1.08;1.08;;;2.60;99.90;;;;;;493284;241;27514;-68
2022/02/11 03:58:39;;;;;;;1.70;1.60;;;2.50;99.90;;;;;;494015;241;27976;-68
2022/02/11 04:55:20;;;;;;;2.30;2.20;;;1.50;99.90;;;;;;494009;241;27520;-68
2022/02/11 04:56:59;;;;;;;2.17;2.08;;;1.40;99.90;;;;;;492225;241;27509;-68
2022/02/11 05:01:19;;;;;;;2.08;1.90;;;1.30;99.90;;;;;;494042;241;27518;-68
2022/02/11 05:03:20;;;;;;;2.25;2.15;;;1.30;99.90;;;;;;494015;241;27471;-68
2022/02/11 05:05:22;;;;;;;2.65;2.45;;;1.30;99.90;;;;;;494012;241;27517;-68
2022/02/11 05:07:23;;;;;;;2.62;2.25;;;1.20;99.90;;;;;;493991;241;27944;-68
2022/02/11 05:09:24;;;;;;;3.05;2.70;;;1.20;99.90;;;;;;494012;241;28035;-68
2022/02/11 05:11:25;;;;;;;2.67;2.47;;;1.30;99.90;;;;;;494033;241;27996;-68
2022/02/11 05:13:27;;;;;;;4.47;2.53;;;1.30;99.90;;;;;;493992;241;27946;-68
2022/02/11 05:15:28;;;;;;;3.22;3.00;;;1.30;99.90;;;;;;493997;241;27589;-68
2022/02/11 05:17:29;;;;;;;3.83;2.62;;;1.30;99.90;;;;;;493992;241;27509;-68
2022/02/11 05:19:30;;;;;;;3.40;3.00;;;1.30;99.90;;;;;;494017;241;27480;-68
2022/02/11 05:21:32;;;;;;;2.97;2.60;;;1.30;99.90;;;;;;494022;241;27513;-68
2022/02/11 05:23:33;;;;;;;3.00;2.80;;;1.30;99.90;;;;;;494002;241;27542;-68
2022/02/11 05:25:34;;;;;;;2.90;2.70;;;1.30;99.90;;;;;;493982;241;27588;-68
2022/02/11 05:27:35;;;;;;;4.30;3.12;;;1.30;99.90;;;;;;493984;241;27588;-69
2022/02/11 05:29:37;;;;;;;3.08;2.70;;;1.30;99.90;;;;;;493989;241;27542;-69
2022/02/11 05:31:38;;;;;;;4.97;2.90;;;1.30;99.90;;;;;;494017;241;27523;-69
2022/02/11 05:33:39;;;;;;;2.60;2.42;;;1.30;99.90;;;;;;493961;241;27489;-68
2022/02/11 05:35:40;;;;;;;4.10;2.90;;;1.20;99.90;;;;;;493990;241;28088;-68
2022/02/11 05:37:42;;;;;;;2.62;2.47;;;1.20;99.90;;;;;;493999;241;28185;-68
2022/02/11 05:39:43;;;;;;;4.55;2.60;;;1.20;99.90;;;;;;494018;241;27945;-68
2022/02/11 05:41:44;;;;;;;3.30;3.00;;;1.10;99.90;;;;;;493988;241;28024;-68
2022/02/11 05:43:45;;;;;;;3.85;2.90;;;1.10;99.90;;;;;;493989;241;27583;-68
2022/02/11 05:45:47;;;;;;;3.20;3.00;;;1.10;99.90;;;;;;493994;241;27497;-68
2022/02/11 05:47:48;;;;;;;3.45;2.95;;;1.10;99.90;;;;;;494044;241;27531;-68
2022/02/11 05:49:49;;;;;;;3.10;2.65;;;1.10;99.90;;;;;;494036;241;27505;-68
2022/02/11 05:51:50;;;;;;;2.87;2.60;;;1.10;99.90;;;;;;494010;241;27501;-68
2022/02/11 05:53:52;;;;;;;4.72;3.37;;;1.00;99.90;;;;;;494011;241;27477;-68
2022/02/11 05:55:53;;;;;;;3.65;3.10;;;1.00;99.90;;;;;;493982;237;27497;-68
2022/02/11 05:57:54;;;;;;;2.90;2.70;;;1.00;99.90;;;;;;494047;241;27585;-68
2022/02/11 05:59:56;;;;;;;3.25;3.05;;;1.00;99.90;;;;;;494016;241;27456;-68
2022/02/11 06:01:57;;;;;;;3.25;2.90;;;1.10;99.90;;;;;;494019;241;27502;-69
2022/02/11 06:03:58;;;;;;;2.90;2.70;;;1.10;99.90;;;;;;493973;241;28331;-68
2022/02/11 06:05:59;;;;;;;4.37;3.15;;;1.20;99.90;;;;;;493990;241;27925;-68
2022/02/11 06:08:00;;;;;;;4.25;3.15;;;1.20;99.90;;;;;;494006;241;28057;-68
2022/02/11 06:10:02;;;;;;;4.47;3.40;;;1.20;99.90;;;;;;493974;241;28070;-68
2022/02/11 06:12:03;;;;;;;4.40;3.33;;;1.30;99.90;;;;;;493962;241;27520;-68
2022/02/11 06:14:04;;;;;;;5.22;3.47;;;1.20;99.90;;;;;;493960;241;27485;-68
2022/02/11 06:16:05;;;;;;;3.55;3.25;;;1.30;99.90;;;;;;494000;241;27603;-68
2022/02/11 06:18:07;;;;;;;5.03;3.58;;;1.30;99.90;;;;;;493993;241;27509;-68
2022/02/11 06:20:08;;;;;;;6.10;3.10;;;1.20;99.90;;;;;;494017;241;27961;-69
2022/02/11 06:22:09;;;;;;;5.43;3.55;;;1.30;99.90;;;;;;493978;241;27529;-68
2022/02/11 06:24:10;;;;;;;4.10;3.60;;;1.30;99.90;;;;;;493956;241;27615;-68
2022/02/11 06:26:12;;;;;;;3.80;3.33;;;1.40;99.90;;;;;;493984;241;27546;-68
2022/02/11 06:28:14;;;;;;;4.80;4.25;;;1.40;99.90;;;;;;493986;241;27539;-68
2022/02/11 06:30:14;;;;;;;7.60;4.10;;;1.40;99.90;;;;;;493936;241;27559;-68
2022/02/11 06:32:15;;;;;;;5.78;4.20;;;1.40;99.90;;;;;;493986;241;27981;-69
2022/02/11 06:34:17;;;;;;;5.18;3.85;;;1.40;99.90;;;;;;494030;241;28163;-69
2022/02/11 06:36:18;;;;;;;5.68;4.05;;;1.40;99.90;;;;;;494019;241;28118;-68
2022/02/11 06:38:19;;;;;;;6.93;4.57;;;1.40;99.90;;;;;;494001;241;27992;-67
2022/02/11 06:40:20;;;;;;;5.70;3.80;;;1.40;99.90;;;;;;493998;241;27549;-68
2022/02/11 06:42:22;;;;;;;6.55;4.53;;;1.40;99.90;;;;;;494002;241;27592;-68
2022/02/11 06:44:23;;;;;;;8.25;4.87;;;1.30;99.90;;;;;;494035;241;27498;-68
2022/02/11 06:46:24;;;;;;;8.07;4.90;;;1.20;99.90;;;;;;494034;241;27489;-68
2022/02/11 06:48:25;;;;;;;8.63;5.20;;;1.20;99.90;;;;;;494030;241;27537;-68
2022/02/11 06:50:27;;;;;;;7.40;5.25;;;1.10;99.90;;;;;;494029;241;27566;-69
2022/02/11 06:52:28;;;;;;;8.73;4.70;;;1.10;99.90;;;;;;493986;241;27523;-68
2022/02/11 06:54:29;;;;;;;5.25;4.50;;;1.00;99.90;;;;;;494014;241;27606;-68
2022/02/11 06:56:30;;;;;;;10.38;5.22;;;1.00;99.90;;;;;;493999;241;27474;-68
2022/02/11 06:58:32;;;;;;;6.35;4.57;;;1.00;99.90;;;;;;493982;241;28011;-68
2022/02/11 07:00:33;;;;;;;6.45;4.78;;;1.00;99.90;;;;;;493995;241;28662;-68
2022/02/11 07:02:34;;;;;;;8.32;5.03;;;1.00;99.90;;;;;;494016;241;28032;-68
2022/02/11 07:04:35;;;;;;;8.32;5.22;;;0.90;99.90;;;;;;494015;241;28000;-68
2022/02/11 07:06:37;;;;;;;6.30;4.70;;;0.90;99.90;;;;;;494004;241;27564;-68
2022/02/11 07:08:38;;;;;;;5.37;4.65;;;0.90;99.90;;;;;;494026;241;27646;-69
2022/02/11 07:10:39;;;;;;;5.00;4.50;;;0.90;99.90;;;;;;494003;241;27497;-69
2022/02/11 07:12:40;;;;;;;9.23;4.75;;;0.90;99.90;;;;;;494044;241;27462;-68
2022/02/11 07:14:42;;;;;;;7.10;4.93;;;0.80;99.90;;;;;;494023;241;27508;-68
2022/02/11 07:16:44;;;;;;;7.78;5.15;;;0.80;99.90;;;;;;493996;241;27490;-68
2022/02/11 07:18:44;;;;;;;4.95;4.20;;;0.90;99.90;;;;;;493938;241;27524;-69
2022/02/11 07:20:45;;;;;;;4.55;4.05;;;0.80;99.90;;;;;;494022;237;27488;-68
2022/02/11 07:22:47;;;;;;;7.60;4.30;;;0.90;99.90;;;;;;494005;241;27493;-68
2022/02/11 07:24:50;;;;;;;9.13;5.55;;;0.90;99.90;;;;;;494004;241;27898;-68
2022/02/11 07:26:49;;;;;;;6.55;5.03;;;0.90;99.90;;;;;;493850;241;27583;-68
2022/02/11 07:28:50;;;;;;;8.50;5.10;;;0.90;99.90;;;;;;493970;241;28089;-68
2022/02/11 07:30:52;;;;;;;6.68;4.78;;;0.90;99.90;;;;;;494030;241;28162;-69
2022/02/11 07:32:53;;;;;;;8.88;5.57;;;0.90;99.90;;;;;;494013;241;29150;-68
2022/02/11 07:34:54;;;;;;;7.12;4.80;;;0.90;99.90;;;;;;493979;241;28059;-68
2022/02/11 07:36:55;;;;;;;6.30;4.95;;;0.90;99.90;;;;;;494000;241;27497;-68
2022/02/11 07:38:57;;;;;;;6.47;5.22;;;0.90;99.90;;;;;;493969;241;27504;-69
2022/02/11 07:40:58;;;;;;;8.25;5.28;;;1.00;99.90;;;;;;494019;241;27592;-68
2022/02/11 07:42:59;;;;;;;9.27;5.53;;;1.00;99.90;;;;;;494011;241;27525;-69
2022/02/11 07:45:01;;;;;;;7.50;5.45;;;1.00;99.90;;;;;;493999;241;27543;-68
2022/02/11 07:47:02;;;;;;;10.95;6.97;;;1.00;99.90;;;;;;493980;241;27580;-68
2022/02/11 07:49:03;;;;;;;9.10;6.53;;;1.00;99.90;;;;;;494018;241;27515;-68
2022/02/11 07:51:04;;;;;;;10.13;6.10;;;1.10;99.90;;;;;;494040;241;27501;-68
2022/02/11 07:53:06;;;;;;;8.05;5.78;;;1.20;99.90;;;;;;493999;241;27490;-68
2022/02/11 07:55:07;;;;;;;13.77;6.90;;;1.30;99.90;;;;;;493998;241;27987;-68
2022/02/11 07:57:08;;;;;;;6.93;5.82;;;1.20;99.90;;;;;;494011;241;27932;-68
2022/02/11 07:59:10;;;;;;;10.80;6.30;;;1.30;99.90;;;;;;494004;241;27976;-68
2022/02/11 08:01:13;;;;;;;7.60;5.30;;;1.40;99.90;;;;;;494010;241;27497;-68
2022/02/11 08:03:12;;;;;;;10.13;6.00;;;1.50;99.90;;;;;;493825;241;27463;-68
2022/02/11 08:05:13;;;;;;;6.25;5.65;;;1.50;99.90;;;;;;493990;241;27606;-68
2022/02/11 08:07:14;;;;;;;7.32;5.32;;;1.60;99.90;;;;;;493983;241;27469;-69
2022/02/11 08:09:16;;;;;;;5.10;4.50;;;1.70;99.90;;;;;;494056;241;27485;-68
2022/02/11 08:11:17;;;;;;;10.18;5.80;;;1.80;99.90;;;;;;494034;241;27624;-68
2022/02/11 08:13:18;;;;;;;9.38;5.90;;;1.70;99.90;;;;;;494028;241;27476;-68
2022/02/11 08:15:19;;;;;;;6.05;5.45;;;1.70;99.90;;;;;;494019;241;27519;-68
2022/02/11 08:17:21;;;;;;;8.80;6.35;;;1.80;99.90;;;;;;493995;241;27927;-68
2022/02/11 08:19:22;;;;;;;9.05;5.90;;;1.90;99.90;;;;;;494072;241;27906;-69
2022/02/11 08:21:24;;;;;;;8.80;5.97;;;1.90;99.90;;;;;;494016;241;28033;-68
2022/02/11 08:23:25;;;;;;;9.90;6.35;;;2.00;99.90;;;;;;493928;241;27918;-69
2022/02/11 08:25:26;;;;;;;8.00;5.50;;;2.00;99.90;;;;;;494017;241;27992;-69
2022/02/11 08:27:29;;;;;;;7.15;5.35;;;2.00;99.90;;;;;;494025;241;27528;-68
2022/02/11 08:29:31;;;;;;;7.03;5.37;;;2.00;99.90;;;;;;493860;241;27513;-68
2022/02/11 08:31:29;;;;;;;6.45;5.35;;;2.00;99.90;;;;;;493795;241;27605;-68
2022/02/11 08:33:31;;;;;;;11.73;6.28;;;2.00;99.90;;;;;;493993;241;27595;-69
2022/02/11 08:35:32;;;;;;;8.57;6.15;;;2.10;99.90;;;;;;493976;241;27518;-68
2022/02/11 08:37:33;;;;;;;7.82;5.78;;;2.10;99.90;;;;;;494011;241;27611;-69
2022/02/11 08:39:38;;;;;;;9.05;6.70;;;2.00;99.90;;;;;;494006;241;27512;-68
2022/02/11 08:41:36;;;;;;;11.02;6.62;;;2.00;99.90;;;;;;493696;241;27501;-68
2022/02/11 08:43:37;;;;;;;8.65;6.22;;;2.10;99.90;;;;;;493954;241;27477;-69
2022/02/11 08:45:40;;;;;;;13.55;6.45;;;2.10;99.90;;;;;;493983;241;27957;-69
2022/02/11 08:47:39;;;;;;;11.50;7.15;;;2.20;99.90;;;;;;493867;241;27998;-69
2022/02/11 08:49:41;;;;;;;14.00;7.47;;;2.10;99.90;;;;;;493993;241;28022;-68
2022/02/11 08:51:42;;;;;;;13.93;7.97;;;2.10;99.90;;;;;;493993;241;27535;-68
2022/02/11 08:53:43;;;;;;;15.35;8.35;;;2.00;99.90;;;;;;493999;241;27462;-69
2022/02/11 08:55:44;;;;;;;10.55;7.50;;;2.00;99.90;;;;;;494017;241;27550;-68
2022/02/11 08:57:47;;;;;;;12.63;7.90;;;2.10;99.90;;;;;;494014;241;27616;-68
2022/02/11 08:59:47;;;;;;;14.27;7.93;;;2.20;99.90;;;;;;493905;241;27605;-68
2022/02/11 09:01:48;;;;;;;14.25;8.68;;;2.20;99.90;;;;;;494000;241;27604;-68
2022/02/11 09:03:49;;;;;;;12.80;7.80;;;2.30;99.90;;;;;;493994;241;27501;-68
2022/02/11 09:05:51;;;;;;;13.02;8.05;;;2.50;99.90;;;;;;493988;241;27935;-68
2022/02/11 09:07:52;;;;;;;9.93;7.37;;;2.60;99.90;;;;;;494004;241;27963;-68
2022/02/11 09:09:53;;;;;;;12.18;7.57;;;2.60;99.90;;;;;;494024;241;27939;-68
2022/02/11 09:11:54;;;;;;;8.85;7.10;;;2.60;99.90;;;;;;494012;241;27593;-68
2022/02/11 09:13:56;;;;;;;12.73;7.30;;;2.50;99.90;;;;;;493983;241;27508;-68
2022/02/11 09:15:57;;;;;;;12.32;7.37;;;2.50;99.90;;;;;;494011;241;27557;-68
2022/02/11 09:17:58;;;;;;;14.27;6.60;;;2.50;99.90;;;;;;493997;241;27576;-68
2022/02/11 09:19:59;;;;;;;9.63;6.70;;;2.40;99.90;;;;;;494003;241;27521;-68
2022/02/11 09:22:01;;;;;;;13.35;7.40;;;2.40;99.90;;;;;;493970;241;27510;-68
2022/02/11 09:24:02;;;;;;;12.37;6.72;;;2.40;99.90;;;;;;494003;237;27653;-68
2022/02/11 09:26:03;;;;;;;8.55;7.22;;;2.50;99.90;;;;;;494001;241;27522;-68
2022/02/11 09:28:04;;;;;;;8.88;7.68;;;2.50;99.90;;;;;;493990;241;27968;-68
2022/02/11 09:30:06;;;;;;;10.57;7.12;;;2.50;99.90;;;;;;493981;241;27996;-68
2022/02/11 09:32:07;;;;;;;9.65;7.10;;;2.60;99.90;;;;;;493978;241;27965;-68
2022/02/11 09:34:12;;;;;;;10.82;6.80;;;2.70;99.90;;;;;;494002;241;27495;-69
2022/02/11 09:36:11;;;;;;;13.05;7.65;;;2.70;99.90;;;;;;493600;241;27529;-68
2022/02/11 09:38:11;;;;;;;11.80;6.35;;;2.80;99.90;;;;;;493849;241;27527;-68
2022/02/11 09:40:12;;;;;;;13.52;8.20;;;2.80;99.90;;;;;;493992;241;27469;-68
2022/02/11 09:42:13;;;;;;;10.75;6.62;;;2.90;99.90;;;;;;493967;241;27478;-68
2022/02/11 09:44:15;;;;;;;11.77;7.37;;;2.90;99.90;;;;;;493998;241;27647;-68
2022/02/11 09:46:16;;;;;;;12.57;7.12;;;3.00;99.90;;;;;;493950;241;27524;-68
2022/02/11 09:48:17;;;;;;;9.07;6.93;;;3.00;99.90;;;;;;494019;241;28041;-68
2022/02/11 09:50:20;;;;;;;12.27;7.50;;;3.00;99.90;;;;;;493962;241;27969;-68
2022/02/11 09:52:19;;;;;;;12.63;6.95;;;3.00;99.90;;;;;;493816;241;28133;-68
2022/02/11 09:54:21;;;;;;;11.63;7.78;;;3.10;99.90;;;;;;493995;241;27517;-69
2022/02/11 09:56:22;;;;;;;13.88;7.37;;;3.20;99.90;;;;;;493981;241;27575;-69
2022/02/11 09:58:23;;;;;;;11.30;7.50;;;3.30;99.90;;;;;;493983;241;27494;-69
2022/02/11 10:00:25;;;;;;;8.73;6.60;;;3.40;99.90;;;;;;493974;241;27496;-68
2022/02/11 10:02:26;;;;;;;11.15;7.45;;;3.20;99.90;;;;;;493991;237;27479;-68
2022/02/11 10:04:27;;;;;;;12.40;7.78;;;3.20;99.90;;;;;;493995;241;27513;-68
2022/02/11 10:06:28;;;;;;;10.43;7.18;;;3.20;99.90;;;;;;494002;241;27562;-69
2022/02/11 10:08:29;;;;;;;10.07;6.45;;;3.30;99.90;;;;;;493984;241;27512;-68
2022/02/11 10:10:42;;;;;;;11.90;7.55;;;3.40;99.90;;;;;;494015;241;28431;-68
2022/02/11 10:12:41;;;;;;;12.77;6.97;;;3.50;99.90;;;;;;493904;241;29063;-68
2022/02/11 10:14:43;;;;;;;9.10;6.53;;;3.40;99.90;;;;;;494017;241;27480;-68
2022/02/11 10:16:43;;;;;;;13.73;7.40;;;3.50;99.90;;;;;;493944;241;27529;-68
2022/02/11 10:18:48;;;;;;;12.70;7.20;;;3.60;99.90;;;;;;493976;241;27465;-68
2022/02/11 10:20:51;;;;;;;10.60;7.50;;;3.70;99.90;;;;;;493757;241;27578;-68
2022/02/11 10:22:50;;;;;;;8.85;6.55;;;3.70;99.90;;;;;;493829;241;27490;-68
2022/02/11 10:24:52;;;;;;;10.63;7.15;;;3.60;99.90;;;;;;494056;241;27465;-69
2022/02/11 10:26:53;;;;;;;9.70;6.57;;;3.60;99.90;;;;;;494021;241;27471;-69
2022/02/11 10:28:55;;;;;;;9.45;6.32;;;3.50;99.90;;;;;;493997;241;27493;-69
2022/02/11 10:30:55;;;;;;;9.70;6.35;;;3.50;99.90;;;;;;493997;241;27546;-69
2022/02/11 10:32:57;;;;;;;11.02;6.50;;;3.60;99.90;;;;;;494015;241;27554;-69
2022/02/11 10:34:58;;;;;;;13.27;7.12;;;3.90;99.90;;;;;;494007;241;27512;-69
2022/02/11 10:36:59;;;;;;;9.82;6.68;;;4.20;99.90;;;;;;494025;241;28697;-69
2022/02/11 10:39:00;;;;;;;14.30;6.57;;;4.40;99.90;;;;;;494032;241;27931;-68
2022/02/11 10:41:02;;;;;;;12.88;6.30;;;4.40;99.90;;;;;;494055;241;27514;-69
2022/02/11 10:43:03;;;;;;;10.55;5.72;;;4.40;99.90;;;;;;494000;241;27559;-68
2022/02/11 10:45:04;;;;;;;7.47;5.55;;;4.50;99.90;;;;;;493992;241;27600;-71
2022/02/11 10:47:07;;;;;;;10.55;5.78;;;4.50;99.90;;;;;;494033;241;27501;-68
2022/02/11 10:49:07;;;;;;;9.32;5.70;;;4.50;99.90;;;;;;493950;241;27507;-68
2022/02/11 10:51:08;;;;;;;10.32;5.15;;;4.40;99.90;;;;;;494033;241;27518;-70
2022/02/11 10:53:09;;;;;;;10.43;6.10;;;4.40;99.90;;;;;;494006;241;28027;-70
2022/02/11 10:55:10;;;;;;;8.90;5.55;;;4.50;99.90;;;;;;493982;241;28003;-70
2022/02/11 10:57:13;;;;;;;7.18;5.05;;;4.50;99.90;;;;;;494059;241;27556;-70
2022/02/11 10:59:13;;;;;;;14.35;5.70;;;4.50;99.90;;;;;;493968;241;27474;-68
2022/02/11 11:01:14;;;;;;;15.35;5.70;;;4.40;99.90;;;;;;494006;237;27642;-70
2022/02/11 11:03:15;;;;;;;11.63;5.10;;;4.20;99.90;;;;;;493961;241;27478;-70
2022/02/11 11:05:17;;;;;;;6.40;5.18;;;4.20;99.90;;;;;;494011;241;27596;-70
2022/02/11 11:07:18;;;;;;;10.15;5.20;;;4.30;99.90;;;;;;494044;241;27517;-68
2022/02/11 11:09:19;;;;;;;8.57;4.93;;;4.60;99.90;;;;;;494017;241;27961;-70
2022/02/11 11:11:21;;;;;;;8.70;5.50;;;4.60;99.90;;;;;;494010;241;28783;-70
2022/02/11 11:13:22;;;;;;;7.45;4.65;;;4.60;99.90;;;;;;494000;241;28013;-68
2022/02/11 11:15:23;;;;;;;10.95;5.62;;;4.50;99.90;;;;;;494012;241;27493;-68
2022/02/11 11:17:24;;;;;;;9.15;5.10;;;4.30;99.90;;;;;;494005;241;27592;-68
2022/02/11 11:19:25;;;;;;;12.45;5.85;;;4.20;99.90;;;;;;494000;241;27454;-69
2022/02/11 11:21:28;;;;;;;7.07;5.20;;;4.30;99.90;;;;;;494023;241;27513;-68
2022/02/11 11:23:28;;;;;;;8.40;5.87;;;4.20;99.90;;;;;;493922;241;27469;-68
2022/02/11 11:25:29;;;;;;;10.07;5.40;;;4.50;99.90;;;;;;493991;241;27521;-70
2022/02/11 11:27:30;;;;;;;8.07;5.03;;;4.50;99.90;;;;;;494021;241;27932;-70
2022/02/11 11:29:32;;;;;;;13.95;5.15;;;4.50;99.90;;;;;;494000;241;27911;-70
2022/02/11 11:31:33;;;;;;;7.55;5.05;;;4.60;99.90;;;;;;493973;241;28010;-70
2022/02/11 11:33:34;;;;;;;8.20;5.28;;;4.40;99.90;;;;;;493979;241;27607;-68
2022/02/11 11:35:35;;;;;;;8.38;5.65;;;4.30;99.90;;;;;;494006;241;27572;-68
2022/02/11 11:37:37;;;;;;;10.52;5.20;;;4.40;99.90;;;;;;494022;241;27629;-68
2022/02/11 11:39:40;;;;;;;7.30;5.87;;;4.60;99.90;;;;;;494005;237;27493;-68
2022/02/11 11:41:39;;;;;;;9.98;5.78;;;4.70;99.90;;;;;;493822;241;27516;-68
2022/02/11 11:43:41;;;;;;;5.68;5.05;;;4.70;99.90;;;;;;494030;241;27518;-68
2022/02/11 11:45:43;;;;;;;7.82;5.55;;;4.70;99.90;;;;;;493990;241;27638;-68
2022/02/11 11:47:44;;;;;;;7.35;4.70;;;4.80;99.90;;;;;;493866;241;28073;-70
2022/02/11 11:49:44;;;;;;;9.70;5.62;;;5.00;99.90;;;;;;494004;241;27976;-68
2022/02/11 11:51:45;;;;;;;7.70;5.25;;;5.20;99.90;;;;;;494035;241;28002;-68
2022/02/11 11:53:47;;;;;;;6.90;5.93;;;5.30;99.90;;;;;;494045;241;27500;-68
2022/02/11 11:55:48;;;;;;;9.68;4.90;;;5.30;99.90;;;;;;494019;241;27576;-68
2022/02/11 11:57:49;;;;;;;7.60;4.43;;;5.30;99.90;;;;;;494018;241;27535;-68
2022/02/11 11:59:50;;;;;;;8.88;5.50;;;5.30;99.90;;;;;;493828;241;27479;-68
2022/02/11 12:01:55;;;;;;;7.40;4.70;;;5.40;99.90;;;;;;493835;241;27501;-68
2022/02/11 12:03:53;;;;;;;9.98;4.50;;;5.40;99.90;;;;;;493674;241;27490;-68
2022/02/11 12:05:56;;;;;;;5.30;3.90;;;5.30;99.90;;;;;;493816;241;27918;-69
2022/02/11 12:07:55;;;;;;;6.65;3.92;;;5.30;99.90;;;;;;493723;241;27973;-68
2022/02/11 12:09:57;;;;;;;8.40;3.67;;;5.30;99.90;;;;;;493964;241;27627;-71
2022/02/11 12:11:58;;;;;;;9.05;3.95;;;5.10;99.90;;;;;;493963;241;27476;-71
2022/02/11 12:14:00;;;;;;;8.05;4.85;;;5.10;99.90;;;;;;493997;241;27518;-68
2022/02/11 12:16:01;;;;;;;6.65;4.25;;;5.30;99.90;;;;;;493944;241;27563;-71
2022/02/11 12:18:02;;;;;;;4.22;3.45;;;5.30;99.90;;;;;;493995;241;27592;-68
2022/02/11 12:20:04;;;;;;;11.35;3.72;;;5.10;99.90;;;;;;494046;241;27556;-71
2022/02/11 12:22:08;;;;;;;7.72;3.72;;;5.10;99.90;;;;;;493924;241;27494;-68
2022/02/11 12:28:44;;;;;;;6.20;3.17;;;5.10;99.90;;;;;;494072;241;27943;-68
2022/02/11 12:30:46;;;;;;;4.93;3.35;;;5.30;99.90;;;;;;494019;241;27501;-69
2022/02/11 12:32:47;;;;;;;6.47;3.53;;;5.30;99.90;;;;;;494019;241;27570;-68
2022/02/11 12:34:48;;;;;;;8.18;3.80;;;5.30;99.90;;;;;;494033;241;27542;-68
2022/02/11 12:36:50;;;;;;;8.52;3.15;;;5.40;99.90;;;;;;494014;241;27519;-70
2022/02/11 12:38:52;;;;;;;6.18;3.55;;;5.50;99.90;;;;;;494087;241;27593;-70
2022/02/11 12:40:53;;;;;;;6.82;3.70;;;5.40;99.90;;;;;;494034;241;27492;-70
2022/02/11 12:42:54;;;;;;;4.72;3.00;;;5.30;99.90;;;;;;494018;241;28052;-70
2022/02/11 12:44:55;;;;;;;9.75;3.35;;;5.10;99.90;;;;;;494023;241;28103;-70
2022/02/11 12:46:57;;;;;;;5.37;3.53;;;5.00;99.90;;;;;;494009;241;27482;-71
2022/02/11 12:48:58;;;;;;;6.15;3.17;;;5.10;99.90;;;;;;494018;241;27511;-70
2022/02/11 12:50:59;;;;;;;5.57;2.95;;;5.20;99.90;;;;;;494014;241;27494;-70
2022/02/11 12:53:00;;;;;;;8.07;2.80;;;5.40;99.90;;;;;;493974;241;27525;-70
2022/02/11 12:55:02;;;;;;;6.95;3.25;;;5.40;99.90;;;;;;494059;241;27499;-70
2022/02/11 12:57:03;;;;;;;4.03;2.80;;;5.50;99.90;;;;;;494015;241;27482;-68
2022/02/11 12:59:04;;;;;;;8.73;3.62;;;5.50;99.90;;;;;;493911;241;27979;-68
2022/02/11 13:01:05;;;;;;;7.60;3.30;;;5.50;99.90;;;;;;493997;241;28023;-70
2022/02/11 13:03:07;;;;;;;4.68;3.42;;;5.50;99.90;;;;;;494034;241;27488;-68
2022/02/11 13:05:08;;;;;;;8.15;3.33;;;5.50;99.90;;;;;;494015;241;27511;-69
2022/02/11 13:07:10;;;;;;;10.32;3.12;;;5.40;99.90;;;;;;494007;241;27501;-68
2022/02/11 13:09:11;;;;;;;13.65;3.72;;;5.50;99.90;;;;;;493952;241;27509;-70
2022/02/11 13:11:14;;;;;;;6.00;3.00;;;5.50;99.90;;;;;;494013;241;27486;-70
2022/02/11 13:13:13;;;;;;;10.73;3.65;;;5.60;99.90;;;;;;493874;241;27541;-69
2022/02/11 13:15:14;;;;;;;4.68;3.00;;;5.50;99.90;;;;;;494009;241;27981;-69
2022/02/11 13:17:16;;;;;;;7.82;3.40;;;5.50;99.90;;;;;;493984;241;27942;-70
2022/02/11 13:19:22;;;;;;;4.87;2.90;;;5.30;99.90;;;;;;493999;241;27593;-71
2022/02/11 13:21:21;;;;;;;5.43;2.97;;;5.20;99.90;;;;;;493815;241;27540;-70
2022/02/11 13:23:22;;;;;;;4.97;3.20;;;5.20;99.90;;;;;;494021;241;27513;-70
2022/02/11 13:25:23;;;;;;;4.10;2.95;;;5.50;99.90;;;;;;494046;241;27484;-69
2022/02/11 13:27:25;;;;;;;7.35;3.25;;;5.80;99.90;;;;;;494038;241;27970;-68
2022/02/11 13:29:26;;;;;;;7.68;2.83;;;5.90;99.90;;;;;;494011;241;28000;-68
2022/02/11 13:31:27;;;;;;;5.30;2.92;;;6.10;99.90;;;;;;493971;241;27608;-69
2022/02/11 13:33:28;;;;;;;8.70;2.75;;;6.00;99.90;;;;;;494034;241;27530;-70
2022/02/11 13:35:30;;;;;;;8.88;2.87;;;5.80;99.90;;;;;;494022;241;27540;-71
2022/02/11 13:37:31;;;;;;;9.68;3.20;;;5.50;99.90;;;;;;493980;241;27603;-71
2022/02/11 13:39:32;;;;;;;5.15;2.80;;;5.30;99.90;;;;;;493992;241;27564;-69
2022/02/11 13:41:38;;;;;;;4.93;2.60;;;5.30;99.90;;;;;;493979;241;28063;-70
2022/02/11 13:43:35;;;;;;;5.95;3.30;;;5.30;99.90;;;;;;493633;241;27938;-70
2022/02/11 13:45:36;;;;;;;5.50;3.00;;;5.20;99.90;;;;;;493997;241;27932;-70
2022/02/11 13:47:37;;;;;;;7.93;2.95;;;5.30;99.90;;;;;;493995;241;27592;-70
2022/02/11 13:49:38;;;;;;;9.65;3.25;;;5.20;99.90;;;;;;493997;241;27477;-70
2022/02/11 13:51:40;;;;;;;6.07;2.65;;;5.30;99.90;;;;;;493991;241;27518;-69
2022/02/11 13:53:41;;;;;;;9.13;2.87;;;5.30;99.90;;;;;;494008;241;27542;-70
2022/02/11 13:55:42;;;;;;;8.68;3.08;;;5.20;99.90;;;;;;493982;241;27514;-71
2022/02/11 13:57:43;;;;;;;3.87;2.70;;;5.30;99.90;;;;;;493984;241;27612;-70
2022/02/11 13:59:45;;;;;;;7.75;2.53;;;5.30;99.90;;;;;;493954;241;27481;-71
2022/02/11 14:01:46;;;;;;;7.00;3.20;;;5.30;99.90;;;;;;494001;241;27554;-71
2022/02/11 14:03:47;;;;;;;13.70;2.80;;;5.30;99.90;;;;;;494008;241;27983;-70
2022/02/11 14:05:49;;;;;;;5.12;3.10;;;5.30;99.90;;;;;;494010;241;27568;-68
2022/02/11 14:07:50;;;;;;;11.12;2.55;;;5.30;99.90;;;;;;494007;241;27643;-68
2022/02/11 14:09:51;;;;;;;3.60;2.30;;;5.20;99.90;;;;;;494002;241;27651;-68
2022/02/11 14:11:52;;;;;;;5.47;3.03;;;5.20;99.90;;;;;;494003;241;27584;-68
2022/02/11 14:13:54;;;;;;;6.37;2.55;;;5.10;99.90;;;;;;493985;241;27509;-68
2022/02/11 14:15:55;;;;;;;4.10;2.60;;;5.00;99.90;;;;;;493974;241;27549;-68
2022/02/11 14:17:56;;;;;;;4.72;2.45;;;4.90;99.90;;;;;;493969;241;27525;-68